createdAt,value
2022-12-15T00:00:04.688Z,-6.13
2022-12-15T00:05:25.162Z,-6.46
2022-12-15T00:10:45.235Z,-6.66
2022-12-15T00:16:06.149Z,-6.72
2022-12-15T00:21:26.466Z,-6.75
2022-12-15T00:26:46.751Z,-6.77
2022-12-15T00:32:07.058Z,-6.70
2022-12-15T00:37:27.314Z,-6.86
2022-12-15T00:42:28.939Z,-6.75
2022-12-15T00:47:32.863Z,-7.08
2022-12-15T00:52:53.294Z,-7.20
2022-12-15T00:58:13.547Z,-7.40
2022-12-15T01:03:38.009Z,-7.48
2022-12-15T01:08:58.602Z,-7.54
2022-12-15T01:14:18.915Z,-7.49
2022-12-15T01:19:39.189Z,-7.50
2022-12-15T01:24:40.939Z,-7.19
2022-12-15T01:29:42.910Z,-7.27
2022-12-15T01:34:44.636Z,-7.47
2022-12-15T01:40:05.097Z,-7.66
2022-12-15T01:45:47.707Z,-7.51
2022-12-15T01:51:17.947Z,-7.38
2022-12-15T01:56:21.672Z,-7.26
2022-12-15T02:01:23.495Z,-7.39
2022-12-15T02:06:25.982Z,-7.35
2022-12-15T02:11:30.492Z,-7.29
2022-12-15T02:16:42.800Z,-7.24
2022-12-15T02:22:10.612Z,-7.17
2022-12-15T02:27:21.828Z,-7.20
2022-12-15T02:32:40.863Z,-7.25
2022-12-15T02:37:44.979Z,-7.27
2022-12-15T02:42:56.615Z,-7.25
2022-12-15T02:48:05.152Z,-7.20
2022-12-15T02:53:20.104Z,-7.09
2022-12-15T02:58:36.791Z,-7.13
2022-12-15T03:03:40.022Z,-7.39
2022-12-15T03:08:41.713Z,-7.39
2022-12-15T03:13:43.318Z,-7.09
2022-12-15T03:18:45.081Z,-7.23
2022-12-15T03:23:46.951Z,-7.13
2022-12-15T03:28:48.628Z,-7.11
2022-12-15T03:33:50.352Z,-7.27
2022-12-15T03:38:51.984Z,-7.21
2022-12-15T03:43:53.678Z,-6.92
2022-12-15T03:48:55.574Z,-6.94
2022-12-15T03:53:58.880Z,-6.97
2022-12-15T03:59:00.645Z,-7.01
2022-12-15T04:04:02.640Z,-6.92
2022-12-15T04:09:04.337Z,-6.64
2022-12-15T04:14:06.021Z,-6.86
2022-12-15T04:19:26.240Z,-6.75
2022-12-15T04:24:46.617Z,-6.71
2022-12-15T04:30:06.799Z,-6.61
2022-12-15T04:35:27.701Z,-6.72
2022-12-15T04:40:48.463Z,-6.99
2022-12-15T04:46:08.697Z,-7.41
2022-12-15T04:51:28.905Z,-7.45
2022-12-15T04:56:50.864Z,-7.58
2022-12-15T05:02:11.217Z,-7.47
2022-12-15T05:07:31.998Z,-7.12
2022-12-15T05:12:52.113Z,-7.30
2022-12-15T05:18:12.791Z,-7.66
2022-12-15T05:23:33.209Z,-7.72
2022-12-15T05:28:53.699Z,-7.46
2022-12-15T05:34:00.957Z,-7.64
2022-12-15T05:39:06.600Z,-7.48
2022-12-15T05:44:08.548Z,-7.48
2022-12-15T05:49:14.946Z,-7.57
2022-12-15T05:54:19.497Z,-7.76
2022-12-15T05:59:21.284Z,-7.89
2022-12-15T06:04:23.174Z,-8.03
2022-12-15T06:09:24.861Z,-8.14
2022-12-15T06:14:26.518Z,-8.19
2022-12-15T06:19:28.151Z,-7.70
2022-12-15T06:24:29.856Z,-7.54
2022-12-15T06:29:31.641Z,-7.79
2022-12-15T06:34:33.337Z,-8.20
2022-12-15T06:39:35.006Z,-8.29
2022-12-15T06:44:36.665Z,-8.02
2022-12-15T06:49:38.359Z,-7.98
2022-12-15T06:54:39.973Z,-7.77
2022-12-15T06:59:41.699Z,-8.21
2022-12-15T07:04:43.978Z,-8.39
2022-12-15T07:09:45.698Z,-8.20
2022-12-15T07:14:53.030Z,-8.19
2022-12-15T07:19:55.165Z,-8.19
2022-12-15T07:24:57.053Z,-7.89
2022-12-15T07:29:58.765Z,-7.91
2022-12-15T07:35:00.642Z,-8.04
2022-12-15T07:40:02.588Z,-7.93
2022-12-15T07:45:05.419Z,-7.82
2022-12-15T07:50:07.858Z,-7.93
2022-12-15T07:55:09.909Z,-7.66
2022-12-15T08:00:14.886Z,-7.76
2022-12-15T08:05:16.607Z,-7.44
2022-12-15T08:10:18.325Z,-7.62
2022-12-15T08:15:20.054Z,-7.68
2022-12-15T08:20:22.502Z,-7.84
2022-12-15T08:25:25.148Z,-7.86
2022-12-15T08:30:26.939Z,-7.74
2022-12-15T08:35:55.127Z,-7.58
2022-12-15T08:40:50.659Z,-7.36
2022-12-15T08:45:52.560Z,-7.16
2022-12-15T08:50:58.824Z,-7.14
2022-12-15T08:56:06.221Z,-7.04
2022-12-15T09:01:14.875Z,-6.99
2022-12-15T09:06:29.425Z,-6.91
2022-12-15T09:11:32.114Z,-6.82
2022-12-15T09:16:33.996Z,-6.82
2022-12-15T09:21:35.797Z,-6.65
2022-12-15T09:26:37.513Z,-6.62
2022-12-15T09:31:39.992Z,-6.66
2022-12-15T09:36:42.419Z,-6.50
2022-12-15T09:41:53.769Z,-6.43
2022-12-15T09:47:21.356Z,-6.33
2022-12-15T09:52:39.076Z,-6.23
2022-12-15T09:57:48.271Z,-6.46
2022-12-15T10:02:53.036Z,-6.36
2022-12-15T10:07:55.124Z,-6.05
2022-12-15T10:13:02.813Z,-6.23
2022-12-15T10:18:16.165Z,-5.78
2022-12-15T10:23:18.542Z,-5.59
2022-12-15T10:28:52.878Z,-5.32
2022-12-15T10:34:05.607Z,-4.87
2022-12-15T10:39:07.424Z,-4.83
2022-12-15T10:44:36.368Z,-4.77
2022-12-15T10:49:38.215Z,-5.13
2022-12-15T10:54:47.272Z,-4.60
2022-12-15T10:59:50.834Z,-4.29
2022-12-15T11:05:04.733Z,-3.75
2022-12-15T11:10:51.244Z,-1.22
2022-12-15T11:15:55.024Z,1.94
2022-12-15T11:21:07.737Z,3.42
2022-12-15T11:26:32.200Z,4.12
2022-12-15T11:31:40.521Z,4.70
2022-12-15T11:36:45.702Z,4.49
2022-12-15T11:41:59.142Z,5.00
2022-12-15T11:47:43.241Z,4.43
2022-12-15T11:53:04.464Z,2.18
2022-12-15T11:58:27.348Z,0.36
2022-12-15T12:03:41.055Z,-0.70
2022-12-15T12:09:04.720Z,0.67
2022-12-15T12:14:30.776Z,0.79
2022-12-15T12:19:41.420Z,-0.24
2022-12-15T12:24:53.087Z,-1.05
2022-12-15T12:30:05.358Z,-1.68
2022-12-15T12:35:31.022Z,-2.28
2022-12-15T12:40:40.691Z,-2.90
2022-12-15T12:46:20.556Z,-2.87
2022-12-15T12:51:39.673Z,-2.48
2022-12-15T12:56:50.446Z,-2.46
2022-12-15T13:01:52.648Z,-2.63
2022-12-15T13:06:59.668Z,-2.52
2022-12-15T13:12:20.659Z,-2.69
2022-12-15T13:17:39.052Z,-2.92
2022-12-15T13:22:40.915Z,-2.79
2022-12-15T13:27:42.692Z,-2.77
2022-12-15T13:32:52.380Z,-3.01
2022-12-15T13:37:57.014Z,-3.18
2022-12-15T13:43:04.835Z,-3.11
2022-12-15T13:48:15.676Z,-3.19
2022-12-15T13:53:22.235Z,-3.32
2022-12-15T13:58:24.665Z,-3.38
2022-12-15T14:03:26.943Z,-3.44
2022-12-15T14:08:30.525Z,-3.44
2022-12-15T14:13:36.985Z,-3.27
2022-12-15T14:18:39.319Z,-3.31
2022-12-15T14:24:04.103Z,-3.46
2022-12-15T14:29:06.350Z,-3.63
2022-12-15T14:34:18.776Z,-3.84
2022-12-15T14:39:25.518Z,-3.81
2022-12-15T14:44:41.142Z,-3.77
2022-12-15T14:49:48.567Z,-3.86
2022-12-15T14:54:59.120Z,-4.01
2022-12-15T15:00:00.783Z,-4.19
2022-12-15T15:05:07.841Z,-4.29
2022-12-15T15:10:23.163Z,-4.40
2022-12-15T15:15:26.654Z,-4.61
2022-12-15T15:20:37.787Z,-4.76
2022-12-15T15:25:48.472Z,-4.43
2022-12-15T15:31:05.778Z,-4.52
2022-12-15T15:36:10.885Z,-4.67
2022-12-15T15:41:16.803Z,-4.76
2022-12-15T15:46:21.100Z,-4.90
2022-12-15T15:51:24.823Z,-5.22
2022-12-15T15:56:27.484Z,-5.50
2022-12-15T16:01:29.205Z,-5.75
2022-12-15T16:06:31.019Z,-5.84
2022-12-15T16:11:33.910Z,-5.64
2022-12-15T16:16:35.567Z,-5.91
2022-12-15T16:21:37.734Z,-5.97
2022-12-15T16:26:42.885Z,-5.88
2022-12-15T16:31:45.822Z,-5.84
2022-12-15T16:36:47.831Z,-5.95
2022-12-15T16:41:51.671Z,-6.02
2022-12-15T16:46:54.052Z,-6.18
2022-12-15T16:51:55.760Z,-6.33
2022-12-15T16:56:59.914Z,-6.48
2022-12-15T17:02:02.342Z,-6.51
2022-12-15T17:07:04.125Z,-6.53
2022-12-15T17:12:06.035Z,-6.28
2022-12-15T17:17:19.220Z,-6.21
2022-12-15T17:22:27.515Z,-6.43
2022-12-15T17:27:30.144Z,-6.36
2022-12-15T17:32:34.317Z,-6.61
2022-12-15T17:37:36.061Z,-6.51
2022-12-15T17:42:37.806Z,-6.57
2022-12-15T17:47:39.454Z,-6.66
2022-12-15T17:52:44.257Z,-6.67
2022-12-15T17:57:47.189Z,-6.41
2022-12-15T18:02:49.212Z,-6.64
2022-12-15T18:07:58.760Z,-6.72
2022-12-15T18:13:00.767Z,-6.68
2022-12-15T18:18:02.470Z,-6.44
2022-12-15T18:23:14.021Z,-6.48
2022-12-15T18:28:19.977Z,-6.35
2022-12-15T18:33:23.373Z,-6.17
2022-12-15T18:38:27.254Z,-6.01
2022-12-15T18:43:31.459Z,-5.75
2022-12-15T18:48:56.232Z,-5.91
2022-12-15T18:53:57.961Z,-6.06
2022-12-15T18:58:59.725Z,-5.82
2022-12-15T19:04:01.314Z,-5.78
2022-12-15T19:09:06.247Z,-5.65
2022-12-15T19:14:37.467Z,-5.53
2022-12-15T19:19:57.914Z,-5.49
2022-12-15T19:24:59.640Z,-5.49
2022-12-15T19:30:01.598Z,-5.43
2022-12-15T19:35:03.389Z,-5.80
2022-12-15T19:40:06.321Z,-5.57
2022-12-15T19:45:16.890Z,-5.53
2022-12-15T19:50:22.428Z,-5.72
2022-12-15T19:55:32.645Z,-5.52
2022-12-15T20:00:34.410Z,-5.47
2022-12-15T20:05:36.945Z,-5.55
2022-12-15T20:10:39.060Z,-5.39
2022-12-15T20:15:40.957Z,-5.21
2022-12-15T20:20:45.672Z,-5.07
2022-12-15T20:25:48.216Z,-5.36
2022-12-15T20:30:50.590Z,-5.42
2022-12-15T20:35:52.757Z,-5.10
2022-12-15T20:40:56.296Z,-5.06
2022-12-15T20:46:28.606Z,-5.19
2022-12-15T20:51:32.889Z,-5.43
2022-12-15T20:56:34.669Z,-5.39
2022-12-15T21:01:39.001Z,-5.46
2022-12-15T21:06:43.898Z,-5.62
2022-12-15T21:11:46.974Z,-5.60
2022-12-15T21:16:49.632Z,-5.42
2022-12-15T21:21:55.600Z,-5.28
2022-12-15T21:26:57.956Z,-5.52
2022-12-15T21:31:59.731Z,-5.28
2022-12-15T21:37:03.460Z,-5.30
2022-12-15T21:42:13.784Z,-4.89
2022-12-15T21:47:48.400Z,-4.78
2022-12-15T21:52:50.284Z,-4.75
2022-12-15T21:57:54.499Z,-4.82
2022-12-15T22:02:56.342Z,-4.86
2022-12-15T22:08:01.633Z,-5.23
2022-12-15T22:13:03.687Z,-5.35
2022-12-15T22:18:11.854Z,-5.29
2022-12-15T22:23:15.694Z,-5.28
2022-12-15T22:28:21.680Z,-5.24
2022-12-15T22:33:25.462Z,-5.28
2022-12-15T22:38:27.278Z,-5.29
2022-12-15T22:43:39.523Z,-5.28
2022-12-15T22:48:44.622Z,-5.24
2022-12-15T22:53:46.764Z,-5.01
2022-12-15T22:58:53.091Z,-5.03
2022-12-15T23:03:55.712Z,-4.90
2022-12-15T23:08:57.372Z,-4.90
2022-12-15T23:13:59.055Z,-5.00
2022-12-15T23:19:00.863Z,-4.98
2022-12-15T23:24:02.573Z,-5.09
2022-12-15T23:29:04.239Z,-5.18
2022-12-15T23:34:05.907Z,-5.18
2022-12-15T23:39:07.617Z,-5.11
2022-12-15T23:44:12.259Z,-5.18
2022-12-15T23:49:13.873Z,-5.16
2022-12-15T23:54:15.790Z,-5.20
2022-12-15T23:59:17.647Z,-5.13
